createdAt,value
2023-03-10T00:01:49.392Z,1.57
2023-03-10T00:11:52.589Z,1.63
2023-03-10T00:21:57.240Z,1.40
2023-03-10T00:32:00.514Z,0.60
2023-03-10T00:42:06.392Z,0.70
2023-03-10T00:52:09.645Z,0.50
2023-03-10T01:02:14.222Z,0.40
2023-03-10T01:12:17.441Z,0.50
2023-03-10T01:22:21.990Z,0.40
2023-03-10T01:32:25.284Z,0.40
2023-03-10T01:42:31.092Z,0.40
2023-03-10T01:52:35.942Z,0.40
2023-03-10T02:02:47.614Z,0.30
2023-03-10T02:12:50.955Z,0.30
2023-03-10T02:22:55.658Z,0.20
2023-03-10T02:33:05.150Z,0.30
2023-03-10T02:43:14.980Z,0.33
2023-03-10T02:53:22.800Z,0.30
2023-03-10T03:03:27.358Z,0.30
2023-03-10T03:13:32.615Z,0.40
2023-03-10T03:23:38.118Z,0.40
2023-03-10T03:33:44.831Z,0.87
2023-03-10T03:43:48.236Z,0.70
2023-03-10T03:53:52.905Z,0.40
2023-03-10T04:03:56.812Z,1.57
2023-03-10T04:14:01.778Z,0.70
2023-03-10T04:24:06.416Z,0.40
2023-03-10T04:34:11.545Z,0.43
2023-03-10T04:44:29.906Z,0.40
2023-03-10T04:54:36.616Z,0.40
2023-03-10T05:04:40.686Z,0.47
2023-03-10T05:14:46.774Z,0.73
2023-03-10T05:24:50.482Z,0.50
2023-03-10T05:34:56.682Z,0.73
2023-03-10T05:45:00.453Z,0.90
2023-03-10T05:55:06.860Z,0.70
2023-03-10T06:05:12.685Z,0.80
2023-03-10T06:15:17.444Z,0.50
2023-03-10T06:25:21.422Z,0.40
2023-03-10T06:35:25.952Z,0.70
2023-03-10T06:45:29.107Z,0.60
2023-03-10T06:55:33.602Z,0.60
2023-03-10T07:05:36.776Z,0.57
2023-03-10T07:15:41.546Z,0.43
2023-03-10T07:25:44.813Z,0.40
2023-03-10T07:35:49.905Z,0.50
2023-03-10T07:45:53.210Z,0.60
2023-03-10T07:55:57.930Z,0.57
2023-03-10T08:06:01.537Z,0.70
2023-03-10T08:16:07.619Z,0.80
2023-03-10T08:26:14.132Z,0.83
2023-03-10T08:36:21.713Z,0.90
2023-03-10T08:46:26.772Z,0.60
2023-03-10T08:56:31.809Z,0.50
2023-03-10T09:06:35.410Z,0.50
2023-03-10T09:16:40.738Z,0.40
2023-03-10T09:26:44.789Z,0.50
2023-03-10T09:36:49.531Z,0.30
2023-03-10T09:47:05.801Z,0.20
2023-03-10T09:57:17.568Z,0.40
2023-03-10T10:07:23.547Z,0.33
2023-03-10T10:17:52.669Z,0.50
2023-03-10T10:27:59.921Z,0.50
2023-03-10T10:38:07.142Z,0.43
2023-03-10T10:48:33.962Z,0.40
2023-03-10T10:58:40.265Z,0.60
2023-03-10T11:08:50.618Z,0.70
2023-03-10T11:19:02.027Z,0.50
2023-03-10T11:29:15.918Z,0.37
2023-03-10T11:39:32.014Z,0.50
2023-03-10T11:49:38.548Z,0.43
2023-03-10T11:59:49.090Z,0.40
2023-03-10T12:09:54.918Z,0.50
2023-03-10T12:20:25.546Z,0.40
2023-03-10T12:30:48.588Z,0.40
2023-03-10T12:40:53.615Z,0.47
2023-03-10T12:51:01.093Z,0.50
2023-03-10T13:01:11.051Z,0.50
2023-03-10T13:11:33.005Z,0.50
2023-03-10T13:21:39.499Z,0.50
2023-03-10T13:31:52.410Z,0.57
2023-03-10T13:42:00.147Z,0.70
2023-03-10T13:52:05.139Z,0.57
2023-03-10T14:02:18.207Z,1.40
2023-03-10T14:12:37.261Z,1.10
2023-03-10T14:22:43.379Z,1.20
2023-03-10T14:32:46.935Z,1.50
2023-03-10T14:42:53.268Z,1.97
2023-03-10T14:52:56.775Z,1.97
2023-03-10T15:03:01.621Z,1.87
2023-03-10T15:13:04.868Z,2.20
2023-03-10T15:23:13.761Z,1.80
2023-03-10T15:33:19.409Z,2.20
2023-03-10T15:43:24.061Z,2.33
2023-03-10T15:53:27.261Z,2.20
2023-03-10T16:03:31.836Z,2.50
2023-03-10T16:13:35.080Z,2.20
2023-03-10T16:23:39.628Z,2.27
2023-03-10T16:33:43.357Z,2.70
2023-03-10T16:43:48.083Z,2.70
2023-03-10T16:53:52.031Z,2.70
2023-03-10T17:03:57.306Z,2.70
2023-03-10T17:14:02.331Z,2.50
2023-03-10T17:24:08.687Z,2.20
2023-03-10T17:34:14.128Z,2.60
2023-03-10T17:44:18.755Z,2.17
2023-03-10T17:54:23.358Z,2.40
2023-03-10T18:04:29.704Z,2.03
2023-03-10T18:14:34.467Z,2.50
2023-03-10T18:24:39.284Z,2.30
2023-03-10T18:34:42.441Z,1.87
2023-03-10T18:44:47.934Z,1.47
2023-03-10T18:54:51.398Z,1.53
2023-03-10T19:04:56.263Z,1.70
2023-03-10T19:15:05.226Z,1.40
2023-03-10T19:25:12.878Z,1.40
2023-03-10T19:35:18.405Z,5.67
2023-03-10T19:45:23.399Z,2.07
2023-03-10T19:55:27.345Z,1.10
2023-03-10T20:05:32.976Z,1.03
2023-03-10T20:15:36.122Z,0.60
2023-03-10T20:25:40.778Z,0.80
2023-03-10T20:35:44.012Z,3.47
2023-03-10T20:45:51.910Z,1.30
2023-03-10T20:55:55.176Z,0.90
2023-03-10T21:05:59.785Z,1.10
2023-03-10T21:16:03.024Z,0.80
2023-03-10T21:26:12.271Z,0.87
2023-03-10T21:36:16.940Z,0.60
2023-03-10T21:46:21.637Z,0.97
2023-03-10T21:56:28.220Z,0.50
2023-03-10T22:06:32.826Z,0.30
2023-03-10T22:16:36.009Z,0.50
2023-03-10T22:26:40.519Z,0.37
2023-03-10T22:36:43.772Z,0.60
2023-03-10T22:46:48.715Z,0.50
2023-03-10T22:56:51.927Z,0.50
2023-03-10T23:06:56.436Z,0.57
2023-03-10T23:16:59.567Z,0.40
2023-03-10T23:27:04.122Z,0.40
2023-03-10T23:37:07.386Z,0.50
2023-03-10T23:47:11.939Z,0.30
2023-03-10T23:57:15.184Z,0.40
